<?xml version="1.0" encoding="UTF-8" standalone="no" ?>
<gpx xmlns="http://www.topografix.com/GPX/1/1" xmlns:xsi="http://www.w3.org/2001/XMLSchema-instance" xsi:schemaLocation="http://www.topografix.com/GPX/1/1 http://www.topografix.com/GPX/1/1/gpx.xsd" version="1.1" creator="VisuGPX - https://www.visugpx.com">
  <metadata>
    <name>Saint Maime - Cereste</name>
    <desc><![CDATA[GR653D depuis Manne]]></desc>
  </metadata>
  <trk>
    <name><![CDATA[Dauphin-Cereste]]></name>
    <trkseg>
      <trkpt lat="43.90408" lon="5.78671">
        <ele>441.5</ele>
        <time>2010-10-05T06:49:13Z</time>
      </trkpt>
      <trkpt lat="43.90456" lon="5.7865">
        <ele>442</ele>
        <time>2010-10-05T06:49:51Z</time>
      </trkpt>
      <trkpt lat="43.90484" lon="5.78615">
        <ele>439.5</ele>
        <time>2010-10-05T06:50:33Z</time>
      </trkpt>
      <trkpt lat="43.90542" lon="5.78621">
        <ele>449.5</ele>
        <time>2010-10-05T06:51:11Z</time>
      </trkpt>
      <trkpt lat="43.90571" lon="5.78593">
        <ele>437</ele>
        <time>2010-10-05T06:51:53Z</time>
      </trkpt>
      <trkpt lat="43.90616" lon="5.78557">
        <ele>444.5</ele>
        <time>2010-10-05T06:52:31Z</time>
      </trkpt>
      <trkpt lat="43.90664" lon="5.78552">
        <ele>441.5</ele>
        <time>2010-10-05T06:53:11Z</time>
      </trkpt>
      <trkpt lat="43.90698" lon="5.7851">
        <ele>447</ele>
        <time>2010-10-05T06:53:50Z</time>
      </trkpt>
      <trkpt lat="43.90737" lon="5.78486">
        <ele>452.5</ele>
        <time>2010-10-05T06:54:30Z</time>
      </trkpt>
      <trkpt lat="43.90782" lon="5.78472">
        <ele>449.5</ele>
        <time>2010-10-05T06:55:09Z</time>
      </trkpt>
      <trkpt lat="43.90822" lon="5.78448">
        <ele>449</ele>
        <time>2010-10-05T06:55:48Z</time>
      </trkpt>
      <trkpt lat="43.90861" lon="5.78439">
        <ele>428</ele>
        <time>2010-10-05T06:56:33Z</time>
      </trkpt>
      <trkpt lat="43.90919" lon="5.78437">
        <ele>441</ele>
        <time>2010-10-05T06:57:14Z</time>
      </trkpt>
      <trkpt lat="43.90959" lon="5.78457">
        <ele>440</ele>
        <time>2010-10-05T06:57:52Z</time>
      </trkpt>
      <trkpt lat="43.91009" lon="5.78503">
        <ele>435.5</ele>
        <time>2010-10-05T06:58:34Z</time>
      </trkpt>
      <trkpt lat="43.91016" lon="5.78549">
        <ele>431.5</ele>
        <time>2010-10-05T06:59:15Z</time>
      </trkpt>
      <trkpt lat="43.91066" lon="5.78602">
        <ele>432.5</ele>
        <time>2010-10-05T06:59:53Z</time>
      </trkpt>
      <trkpt lat="43.91104" lon="5.78584">
        <ele>447.5</ele>
        <time>2010-10-05T07:00:34Z</time>
      </trkpt>
      <trkpt lat="43.91155" lon="5.78566">
        <ele>449</ele>
        <time>2010-10-05T07:01:14Z</time>
      </trkpt>
      <trkpt lat="43.91195" lon="5.78532">
        <ele>446.5</ele>
        <time>2010-10-05T07:01:53Z</time>
      </trkpt>
      <trkpt lat="43.9124" lon="5.78476">
        <ele>445</ele>
        <time>2010-10-05T07:02:40Z</time>
      </trkpt>
      <trkpt lat="43.91269" lon="5.78432">
        <ele>451.5</ele>
        <time>2010-10-05T07:03:19Z</time>
      </trkpt>
      <trkpt lat="43.91309" lon="5.78404">
        <ele>452.5</ele>
        <time>2010-10-05T07:04:04Z</time>
      </trkpt>
      <trkpt lat="43.91362" lon="5.78364">
        <ele>440.5</ele>
        <time>2010-10-05T07:04:53Z</time>
      </trkpt>
      <trkpt lat="43.91375" lon="5.7836">
        <ele>456</ele>
        <time>2010-10-05T07:05:31Z</time>
      </trkpt>
      <trkpt lat="43.91375" lon="5.7836">
        <ele>456.5</ele>
        <time>2010-10-05T07:06:12Z</time>
      </trkpt>
      <trkpt lat="43.91377" lon="5.78357">
        <ele>457.5</ele>
        <time>2010-10-05T07:06:50Z</time>
      </trkpt>
      <trkpt lat="43.9148" lon="5.7836">
        <ele>456.5</ele>
        <time>2010-10-05T07:07:35Z</time>
      </trkpt>
      <trkpt lat="43.91507" lon="5.78296">
        <ele>452.5</ele>
        <time>2010-10-05T07:08:19Z</time>
      </trkpt>
      <trkpt lat="43.91575" lon="5.78297">
        <ele>478.5</ele>
        <time>2010-10-05T07:09:01Z</time>
      </trkpt>
      <trkpt lat="43.91608" lon="5.78311">
        <ele>459</ele>
        <time>2010-10-05T07:09:43Z</time>
      </trkpt>
      <trkpt lat="43.91655" lon="5.78281">
        <ele>455.5</ele>
        <time>2010-10-05T07:10:22Z</time>
      </trkpt>
      <trkpt lat="43.91689" lon="5.7825">
        <ele>461</ele>
        <time>2010-10-05T07:11:00Z</time>
      </trkpt>
      <trkpt lat="43.91743" lon="5.7823">
        <ele>469</ele>
        <time>2010-10-05T07:11:40Z</time>
      </trkpt>
      <trkpt lat="43.91782" lon="5.78187">
        <ele>467</ele>
        <time>2010-10-05T07:12:19Z</time>
      </trkpt>
      <trkpt lat="43.91804" lon="5.7814">
        <ele>459.5</ele>
        <time>2010-10-05T07:13:03Z</time>
      </trkpt>
      <trkpt lat="43.91863" lon="5.7814">
        <ele>429.5</ele>
        <time>2010-10-05T07:13:49Z</time>
      </trkpt>
      <trkpt lat="43.91929" lon="5.78073">
        <ele>467.5</ele>
        <time>2010-10-05T07:14:40Z</time>
      </trkpt>
      <trkpt lat="43.91964" lon="5.78024">
        <ele>464.5</ele>
        <time>2010-10-05T07:15:26Z</time>
      </trkpt>
      <trkpt lat="43.92014" lon="5.77964">
        <ele>467</ele>
        <time>2010-10-05T07:16:16Z</time>
      </trkpt>
      <trkpt lat="43.92076" lon="5.77947">
        <ele>467.5</ele>
        <time>2010-10-05T07:17:05Z</time>
      </trkpt>
      <trkpt lat="43.92122" lon="5.77912">
        <ele>469</ele>
        <time>2010-10-05T07:17:47Z</time>
      </trkpt>
      <trkpt lat="43.92169" lon="5.77872">
        <ele>451.5</ele>
        <time>2010-10-05T07:18:35Z</time>
      </trkpt>
      <trkpt lat="43.92218" lon="5.77674">
        <ele>459</ele>
        <time>2010-10-05T07:19:19Z</time>
      </trkpt>
      <trkpt lat="43.92266" lon="5.77769">
        <ele>466.5</ele>
        <time>2010-10-05T07:20:11Z</time>
      </trkpt>
      <trkpt lat="43.92287" lon="5.77759">
        <ele>485.5</ele>
        <time>2010-10-05T07:20:53Z</time>
      </trkpt>
      <trkpt lat="43.92274" lon="5.77778">
        <ele>471</ele>
        <time>2010-10-05T07:21:41Z</time>
      </trkpt>
      <trkpt lat="43.92377" lon="5.7776">
        <ele>460</ele>
        <time>2010-10-05T07:22:29Z</time>
      </trkpt>
      <trkpt lat="43.92417" lon="5.77759">
        <ele>467</ele>
        <time>2010-10-05T07:23:14Z</time>
      </trkpt>
      <trkpt lat="43.92478" lon="5.77727">
        <ele>481.5</ele>
        <time>2010-10-05T07:23:57Z</time>
      </trkpt>
      <trkpt lat="43.92539" lon="5.77725">
        <ele>482.5</ele>
        <time>2010-10-05T07:24:41Z</time>
      </trkpt>
      <trkpt lat="43.92605" lon="5.77701">
        <ele>485</ele>
        <time>2010-10-05T07:25:28Z</time>
      </trkpt>
      <trkpt lat="43.92665" lon="5.77716">
        <ele>483</ele>
        <time>2010-10-05T07:26:17Z</time>
      </trkpt>
      <trkpt lat="43.92701" lon="5.77696">
        <ele>476</ele>
        <time>2010-10-05T07:26:58Z</time>
      </trkpt>
      <trkpt lat="43.92765" lon="5.77672">
        <ele>480.5</ele>
        <time>2010-10-05T07:27:46Z</time>
      </trkpt>
      <trkpt lat="43.92826" lon="5.77642">
        <ele>486</ele>
        <time>2010-10-05T07:28:34Z</time>
      </trkpt>
      <trkpt lat="43.92876" lon="5.77614">
        <ele>481</ele>
        <time>2010-10-05T07:29:22Z</time>
      </trkpt>
      <trkpt lat="43.92928" lon="5.77587">
        <ele>483.5</ele>
        <time>2010-10-05T07:30:11Z</time>
      </trkpt>
      <trkpt lat="43.93008" lon="5.77515">
        <ele>483.5</ele>
        <time>2010-10-05T07:31:24Z</time>
      </trkpt>
      <trkpt lat="43.93045" lon="5.77476">
        <ele>467.5</ele>
        <time>2010-10-05T07:32:11Z</time>
      </trkpt>
      <trkpt lat="43.93094" lon="5.77455">
        <ele>465</ele>
        <time>2010-10-05T07:32:58Z</time>
      </trkpt>
      <trkpt lat="43.93153" lon="5.77352">
        <ele>461</ele>
        <time>2010-10-05T07:34:05Z</time>
      </trkpt>
      <trkpt lat="43.93193" lon="5.77374">
        <ele>479.5</ele>
        <time>2010-10-05T07:35:24Z</time>
      </trkpt>
      <trkpt lat="43.93259" lon="5.77337">
        <ele>448</ele>
        <time>2010-10-05T07:36:17Z</time>
      </trkpt>
      <trkpt lat="43.93253" lon="5.7727">
        <ele>422</ele>
        <time>2010-10-05T07:37:04Z</time>
      </trkpt>
      <trkpt lat="43.93242" lon="5.77187">
        <ele>423</ele>
        <time>2010-10-05T07:37:52Z</time>
      </trkpt>
      <trkpt lat="43.93263" lon="5.771">
        <ele>431.5</ele>
        <time>2010-10-05T07:38:41Z</time>
      </trkpt>
      <trkpt lat="43.93316" lon="5.77073">
        <ele>435</ele>
        <time>2010-10-05T07:39:28Z</time>
      </trkpt>
      <trkpt lat="43.9337" lon="5.77097">
        <ele>428</ele>
        <time>2010-10-05T07:40:19Z</time>
      </trkpt>
      <trkpt lat="43.93456" lon="5.77162">
        <ele>429.5</ele>
        <time>2010-10-05T07:41:31Z</time>
      </trkpt>
      <trkpt lat="43.93523" lon="5.77161">
        <ele>430.5</ele>
        <time>2010-10-05T07:42:22Z</time>
      </trkpt>
      <trkpt lat="43.93591" lon="5.77089">
        <ele>456.5</ele>
        <time>2010-10-05T07:43:10Z</time>
      </trkpt>
      <trkpt lat="43.93645" lon="5.77154">
        <ele>459</ele>
        <time>2010-10-05T07:43:59Z</time>
      </trkpt>
      <trkpt lat="43.9369" lon="5.77119">
        <ele>472.5</ele>
        <time>2010-10-05T07:44:47Z</time>
      </trkpt>
      <trkpt lat="43.93747" lon="5.77176">
        <ele>471</ele>
        <time>2010-10-05T07:45:34Z</time>
      </trkpt>
      <trkpt lat="43.93827" lon="5.77123">
        <ele>490</ele>
        <time>2010-10-05T07:46:29Z</time>
      </trkpt>
      <trkpt lat="43.93858" lon="5.77068">
        <ele>486</ele>
        <time>2010-10-05T07:47:16Z</time>
      </trkpt>
      <trkpt lat="43.93853" lon="5.77054">
        <ele>500.5</ele>
        <time>2010-10-05T07:48:12Z</time>
      </trkpt>
      <trkpt lat="43.9384" lon="5.76979">
        <ele>495</ele>
        <time>2010-10-05T07:49:11Z</time>
      </trkpt>
      <trkpt lat="43.93829" lon="5.76973">
        <ele>493.5</ele>
        <time>2010-10-05T07:50:04Z</time>
      </trkpt>
      <trkpt lat="43.93778" lon="5.76945">
        <ele>492</ele>
        <time>2010-10-05T07:50:52Z</time>
      </trkpt>
      <trkpt lat="43.93718" lon="5.76872">
        <ele>491</ele>
        <time>2010-10-05T07:51:47Z</time>
      </trkpt>
      <trkpt lat="43.93766" lon="5.7691">
        <ele>500</ele>
        <time>2010-10-05T07:52:41Z</time>
      </trkpt>
      <trkpt lat="43.93816" lon="5.76929">
        <ele>503.5</ele>
        <time>2010-10-05T07:53:28Z</time>
      </trkpt>
      <trkpt lat="43.9377" lon="5.76897">
        <ele>529</ele>
        <time>2010-10-05T07:54:17Z</time>
      </trkpt>
      <trkpt lat="43.93728" lon="5.76832">
        <ele>520.5</ele>
        <time>2010-10-05T07:55:05Z</time>
      </trkpt>
      <trkpt lat="43.93778" lon="5.76861">
        <ele>528</ele>
        <time>2010-10-05T07:56:05Z</time>
      </trkpt>
      <trkpt lat="43.93788" lon="5.76838">
        <ele>526.5</ele>
        <time>2010-10-05T07:56:52Z</time>
      </trkpt>
      <trkpt lat="43.93784" lon="5.76831">
        <ele>526</ele>
        <time>2010-10-05T07:57:41Z</time>
      </trkpt>
      <trkpt lat="43.93782" lon="5.76826">
        <ele>534.5</ele>
        <time>2010-10-05T07:58:29Z</time>
      </trkpt>
      <trkpt lat="43.93778" lon="5.76813">
        <ele>534.5</ele>
        <time>2010-10-05T07:59:16Z</time>
      </trkpt>
      <trkpt lat="43.93805" lon="5.7678">
        <ele>535.5</ele>
        <time>2010-10-05T07:59:54Z</time>
      </trkpt>
      <trkpt lat="43.93852" lon="5.76793">
        <ele>537</ele>
        <time>2010-10-05T08:00:37Z</time>
      </trkpt>
      <trkpt lat="43.93898" lon="5.76803">
        <ele>517</ele>
        <time>2010-10-05T08:01:15Z</time>
      </trkpt>
      <trkpt lat="43.93872" lon="5.76783">
        <ele>515.5</ele>
        <time>2010-10-05T08:01:57Z</time>
      </trkpt>
      <trkpt lat="43.93865" lon="5.76788">
        <ele>510.5</ele>
        <time>2010-10-05T08:02:39Z</time>
      </trkpt>
      <trkpt lat="43.93841" lon="5.76788">
        <ele>514</ele>
        <time>2010-10-05T08:03:17Z</time>
      </trkpt>
      <trkpt lat="43.93833" lon="5.76758">
        <ele>527.5</ele>
        <time>2010-10-05T08:04:18Z</time>
      </trkpt>
      <trkpt lat="43.93803" lon="5.7672">
        <ele>529.5</ele>
        <time>2010-10-05T08:05:06Z</time>
      </trkpt>
      <trkpt lat="43.93771" lon="5.76726">
        <ele>528</ele>
        <time>2010-10-05T08:05:59Z</time>
      </trkpt>
      <trkpt lat="43.9374" lon="5.76722">
        <ele>529</ele>
        <time>2010-10-05T08:06:58Z</time>
      </trkpt>
      <trkpt lat="43.93712" lon="5.76696">
        <ele>517.5</ele>
        <time>2010-10-05T08:07:47Z</time>
      </trkpt>
      <trkpt lat="43.93739" lon="5.76678">
        <ele>504</ele>
        <time>2010-10-05T08:08:40Z</time>
      </trkpt>
      <trkpt lat="43.93741" lon="5.76676">
        <ele>499</ele>
        <time>2010-10-05T08:09:45Z</time>
      </trkpt>
      <trkpt lat="43.93697" lon="5.76586">
        <ele>510.5</ele>
        <time>2010-10-05T08:25:58Z</time>
      </trkpt>
      <trkpt lat="43.93667" lon="5.76591">
        <ele>509.5</ele>
        <time>2010-10-05T08:26:46Z</time>
      </trkpt>
      <trkpt lat="43.93663" lon="5.76569">
        <ele>503</ele>
        <time>2010-10-05T08:27:41Z</time>
      </trkpt>
      <trkpt lat="43.93585" lon="5.76428">
        <ele>486.5</ele>
        <time>2010-10-05T08:28:34Z</time>
      </trkpt>
      <trkpt lat="43.93567" lon="5.76375">
        <ele>499.5</ele>
        <time>2010-10-05T08:29:22Z</time>
      </trkpt>
      <trkpt lat="43.9354" lon="5.76315">
        <ele>503.5</ele>
        <time>2010-10-05T08:30:10Z</time>
      </trkpt>
      <trkpt lat="43.93583" lon="5.76257">
        <ele>500</ele>
        <time>2010-10-05T08:30:58Z</time>
      </trkpt>
      <trkpt lat="43.93604" lon="5.76183">
        <ele>507.5</ele>
        <time>2010-10-05T08:31:52Z</time>
      </trkpt>
      <trkpt lat="43.93583" lon="5.761">
        <ele>528.5</ele>
        <time>2010-10-05T08:32:46Z</time>
      </trkpt>
      <trkpt lat="43.93584" lon="5.76036">
        <ele>527</ele>
        <time>2010-10-05T08:33:28Z</time>
      </trkpt>
      <trkpt lat="43.93551" lon="5.76059">
        <ele>519.5</ele>
        <time>2010-10-05T08:34:10Z</time>
      </trkpt>
      <trkpt lat="43.93509" lon="5.76029">
        <ele>514.5</ele>
        <time>2010-10-05T08:34:54Z</time>
      </trkpt>
      <trkpt lat="43.93509" lon="5.76022">
        <ele>515.5</ele>
        <time>2010-10-05T08:35:32Z</time>
      </trkpt>
      <trkpt lat="43.93494" lon="5.76013">
        <ele>513.5</ele>
        <time>2010-10-05T08:36:11Z</time>
      </trkpt>
      <trkpt lat="43.9351" lon="5.7599">
        <ele>525.5</ele>
        <time>2010-10-05T08:36:49Z</time>
      </trkpt>
      <trkpt lat="43.93506" lon="5.75945">
        <ele>528.5</ele>
        <time>2010-10-05T08:37:28Z</time>
      </trkpt>
      <trkpt lat="43.93527" lon="5.7592">
        <ele>531.5</ele>
        <time>2010-10-05T08:38:10Z</time>
      </trkpt>
      <trkpt lat="43.93536" lon="5.75906">
        <ele>514.5</ele>
        <time>2010-10-05T08:38:48Z</time>
      </trkpt>
      <trkpt lat="43.93478" lon="5.75863">
        <ele>516.5</ele>
        <time>2010-10-05T08:39:34Z</time>
      </trkpt>
      <trkpt lat="43.93501" lon="5.75855">
        <ele>491.5</ele>
        <time>2010-10-05T08:40:16Z</time>
      </trkpt>
      <trkpt lat="43.93442" lon="5.75777">
        <ele>496.5</ele>
        <time>2010-10-05T08:41:04Z</time>
      </trkpt>
      <trkpt lat="43.93411" lon="5.75699">
        <ele>509</ele>
        <time>2010-10-05T08:41:53Z</time>
      </trkpt>
      <trkpt lat="43.93407" lon="5.75672">
        <ele>507.5</ele>
        <time>2010-10-05T08:42:34Z</time>
      </trkpt>
      <trkpt lat="43.9338" lon="5.75631">
        <ele>507.5</ele>
        <time>2010-10-05T08:43:17Z</time>
      </trkpt>
      <trkpt lat="43.93363" lon="5.75517">
        <ele>508</ele>
        <time>2010-10-05T08:43:56Z</time>
      </trkpt>
      <trkpt lat="43.93367" lon="5.75451">
        <ele>511.5</ele>
        <time>2010-10-05T08:44:41Z</time>
      </trkpt>
      <trkpt lat="43.93356" lon="5.75392">
        <ele>510</ele>
        <time>2010-10-05T08:45:18Z</time>
      </trkpt>
      <trkpt lat="43.93351" lon="5.7541">
        <ele>492</ele>
        <time>2010-10-05T08:46:03Z</time>
      </trkpt>
      <trkpt lat="43.93329" lon="5.75433">
        <ele>483</ele>
        <time>2010-10-05T08:46:44Z</time>
      </trkpt>
      <trkpt lat="43.9326" lon="5.75458">
        <ele>486</ele>
        <time>2010-10-05T08:47:41Z</time>
      </trkpt>
      <trkpt lat="43.93222" lon="5.75507">
        <ele>482</ele>
        <time>2010-10-05T08:48:28Z</time>
      </trkpt>
      <trkpt lat="43.932" lon="5.75551">
        <ele>478.5</ele>
        <time>2010-10-05T08:49:16Z</time>
      </trkpt>
      <trkpt lat="43.93189" lon="5.75598">
        <ele>476.5</ele>
        <time>2010-10-05T08:50:12Z</time>
      </trkpt>
      <trkpt lat="43.93141" lon="5.75669">
        <ele>471</ele>
        <time>2010-10-05T08:50:54Z</time>
      </trkpt>
      <trkpt lat="43.93102" lon="5.75686">
        <ele>468.5</ele>
        <time>2010-10-05T08:51:31Z</time>
      </trkpt>
      <trkpt lat="43.93084" lon="5.75758">
        <ele>467</ele>
        <time>2010-10-05T08:52:20Z</time>
      </trkpt>
      <trkpt lat="43.93093" lon="5.75806">
        <ele>463.5</ele>
        <time>2010-10-05T08:52:58Z</time>
      </trkpt>
      <trkpt lat="43.93098" lon="5.75842">
        <ele>467.5</ele>
        <time>2010-10-05T08:53:38Z</time>
      </trkpt>
      <trkpt lat="43.93102" lon="5.75824">
        <ele>466.5</ele>
        <time>2010-10-05T08:54:17Z</time>
      </trkpt>
      <trkpt lat="43.93096" lon="5.75828">
        <ele>452.5</ele>
        <time>2010-10-05T08:54:59Z</time>
      </trkpt>
      <trkpt lat="43.93096" lon="5.75817">
        <ele>471</ele>
        <time>2010-10-05T08:55:41Z</time>
      </trkpt>
      <trkpt lat="43.93081" lon="5.75818">
        <ele>466</ele>
        <time>2010-10-05T08:56:19Z</time>
      </trkpt>
      <trkpt lat="43.93085" lon="5.7584">
        <ele>468.5</ele>
        <time>2010-10-05T08:56:58Z</time>
      </trkpt>
      <trkpt lat="43.93072" lon="5.75864">
        <ele>489</ele>
        <time>2010-10-05T08:57:38Z</time>
      </trkpt>
      <trkpt lat="43.93056" lon="5.75788">
        <ele>496</ele>
        <time>2010-10-05T08:58:20Z</time>
      </trkpt>
      <trkpt lat="43.93054" lon="5.75817">
        <ele>511.5</ele>
        <time>2010-10-05T08:58:58Z</time>
      </trkpt>
      <trkpt lat="43.93069" lon="5.75875">
        <ele>488.5</ele>
        <time>2010-10-05T08:59:40Z</time>
      </trkpt>
      <trkpt lat="43.93035" lon="5.75832">
        <ele>489.5</ele>
        <time>2010-10-05T09:00:18Z</time>
      </trkpt>
      <trkpt lat="43.93006" lon="5.7578">
        <ele>466</ele>
        <time>2010-10-05T09:00:57Z</time>
      </trkpt>
      <trkpt lat="43.92955" lon="5.75729">
        <ele>507</ele>
        <time>2010-10-05T09:01:39Z</time>
      </trkpt>
      <trkpt lat="43.92967" lon="5.75682">
        <ele>508</ele>
        <time>2010-10-05T09:02:17Z</time>
      </trkpt>
      <trkpt lat="43.93013" lon="5.75631">
        <ele>507.5</ele>
        <time>2010-10-05T09:02:57Z</time>
      </trkpt>
      <trkpt lat="43.93008" lon="5.75647">
        <ele>498.5</ele>
        <time>2010-10-05T09:03:35Z</time>
      </trkpt>
      <trkpt lat="43.92989" lon="5.75675">
        <ele>474.5</ele>
        <time>2010-10-05T09:04:13Z</time>
      </trkpt>
      <trkpt lat="43.92973" lon="5.75641">
        <ele>460</ele>
        <time>2010-10-05T09:04:52Z</time>
      </trkpt>
      <trkpt lat="43.92991" lon="5.75587">
        <ele>448</ele>
        <time>2010-10-05T09:05:34Z</time>
      </trkpt>
      <trkpt lat="43.92999" lon="5.75527">
        <ele>439</ele>
        <time>2010-10-05T09:06:11Z</time>
      </trkpt>
      <trkpt lat="43.92996" lon="5.75473">
        <ele>438</ele>
        <time>2010-10-05T09:06:57Z</time>
      </trkpt>
      <trkpt lat="43.92984" lon="5.75444">
        <ele>438</ele>
        <time>2010-10-05T09:07:40Z</time>
      </trkpt>
      <trkpt lat="43.92975" lon="5.75383">
        <ele>436</ele>
        <time>2010-10-05T09:08:26Z</time>
      </trkpt>
      <trkpt lat="43.92979" lon="5.75337">
        <ele>503</ele>
        <time>2010-10-05T09:09:10Z</time>
      </trkpt>
      <trkpt lat="43.92864" lon="5.75348">
        <ele>489</ele>
        <time>2010-10-05T09:10:06Z</time>
      </trkpt>
      <trkpt lat="43.92966" lon="5.75105">
        <ele>492.5</ele>
        <time>2010-10-05T09:10:54Z</time>
      </trkpt>
      <trkpt lat="43.92903" lon="5.75135">
        <ele>504</ele>
        <time>2010-10-05T09:11:36Z</time>
      </trkpt>
      <trkpt lat="43.92844" lon="5.75126">
        <ele>502.5</ele>
        <time>2010-10-05T09:12:17Z</time>
      </trkpt>
      <trkpt lat="43.92813" lon="5.75097">
        <ele>501.5</ele>
        <time>2010-10-05T09:12:58Z</time>
      </trkpt>
      <trkpt lat="43.92738" lon="5.75083">
        <ele>503</ele>
        <time>2010-10-05T09:13:39Z</time>
      </trkpt>
      <trkpt lat="43.92727" lon="5.75072">
        <ele>504</ele>
        <time>2010-10-05T09:14:21Z</time>
      </trkpt>
      <trkpt lat="43.927" lon="5.75047">
        <ele>497.5</ele>
        <time>2010-10-05T09:15:02Z</time>
      </trkpt>
      <trkpt lat="43.92697" lon="5.75036">
        <ele>496</ele>
        <time>2010-10-05T09:15:41Z</time>
      </trkpt>
      <trkpt lat="43.92603" lon="5.74955">
        <ele>500.5</ele>
        <time>2010-10-05T09:16:23Z</time>
      </trkpt>
      <trkpt lat="43.92599" lon="5.74939">
        <ele>498.5</ele>
        <time>2010-10-05T09:17:01Z</time>
      </trkpt>
      <trkpt lat="43.92617" lon="5.7491">
        <ele>498</ele>
        <time>2010-10-05T09:17:51Z</time>
      </trkpt>
      <trkpt lat="43.92618" lon="5.74908">
        <ele>497.5</ele>
        <time>2010-10-05T09:18:33Z</time>
      </trkpt>
      <trkpt lat="43.92547" lon="5.74914">
        <ele>504</ele>
        <time>2010-10-05T09:19:14Z</time>
      </trkpt>
      <trkpt lat="43.9256" lon="5.74918">
        <ele>503.5</ele>
        <time>2010-10-05T09:19:57Z</time>
      </trkpt>
      <trkpt lat="43.92489" lon="5.74959">
        <ele>502</ele>
        <time>2010-10-05T09:20:40Z</time>
      </trkpt>
      <trkpt lat="43.92477" lon="5.7494">
        <ele>498</ele>
        <time>2010-10-05T09:21:21Z</time>
      </trkpt>
      <trkpt lat="43.92449" lon="5.74887">
        <ele>502</ele>
        <time>2010-10-05T09:22:04Z</time>
      </trkpt>
      <trkpt lat="43.92486" lon="5.7476">
        <ele>500</ele>
        <time>2010-10-05T09:22:46Z</time>
      </trkpt>
      <trkpt lat="43.92401" lon="5.74756">
        <ele>501</ele>
        <time>2010-10-05T09:23:29Z</time>
      </trkpt>
      <trkpt lat="43.92382" lon="5.74723">
        <ele>497</ele>
        <time>2010-10-05T09:24:12Z</time>
      </trkpt>
      <trkpt lat="43.9235" lon="5.74779">
        <ele>498</ele>
        <time>2010-10-05T09:25:23Z</time>
      </trkpt>
      <trkpt lat="43.92283" lon="5.74876">
        <ele>495</ele>
        <time>2010-10-05T09:26:11Z</time>
      </trkpt>
      <trkpt lat="43.92249" lon="5.74976">
        <ele>502</ele>
        <time>2010-10-05T09:27:11Z</time>
      </trkpt>
      <trkpt lat="43.92211" lon="5.74986">
        <ele>493</ele>
        <time>2010-10-05T09:28:06Z</time>
      </trkpt>
      <trkpt lat="43.92251" lon="5.74799">
        <ele>525</ele>
        <time>2010-10-05T09:30:35Z</time>
      </trkpt>
      <trkpt lat="43.92269" lon="5.74748">
        <ele>537.5</ele>
        <time>2010-10-05T09:31:23Z</time>
      </trkpt>
      <trkpt lat="43.92252" lon="5.74708">
        <ele>533</ele>
        <time>2010-10-05T09:32:13Z</time>
      </trkpt>
      <trkpt lat="43.92209" lon="5.74725">
        <ele>520</ele>
        <time>2010-10-05T09:32:59Z</time>
      </trkpt>
      <trkpt lat="43.92159" lon="5.74718">
        <ele>515</ele>
        <time>2010-10-05T09:33:38Z</time>
      </trkpt>
      <trkpt lat="43.92139" lon="5.74655">
        <ele>506.5</ele>
        <time>2010-10-05T09:34:17Z</time>
      </trkpt>
      <trkpt lat="43.92096" lon="5.74623">
        <ele>517</ele>
        <time>2010-10-05T09:35:02Z</time>
      </trkpt>
      <trkpt lat="43.92059" lon="5.74611">
        <ele>528</ele>
        <time>2010-10-05T09:35:43Z</time>
      </trkpt>
      <trkpt lat="43.92011" lon="5.74591">
        <ele>527.5</ele>
        <time>2010-10-05T09:36:21Z</time>
      </trkpt>
      <trkpt lat="43.92001" lon="5.74525">
        <ele>517.5</ele>
        <time>2010-10-05T09:37:05Z</time>
      </trkpt>
      <trkpt lat="43.91966" lon="5.74529">
        <ele>523.5</ele>
        <time>2010-10-05T09:37:46Z</time>
      </trkpt>
      <trkpt lat="43.91948" lon="5.74509">
        <ele>524.5</ele>
        <time>2010-10-05T09:38:23Z</time>
      </trkpt>
      <trkpt lat="43.91886" lon="5.74473">
        <ele>535.5</ele>
        <time>2010-10-05T09:39:05Z</time>
      </trkpt>
      <trkpt lat="43.91903" lon="5.74443">
        <ele>538.5</ele>
        <time>2010-10-05T09:39:51Z</time>
      </trkpt>
      <trkpt lat="43.91927" lon="5.74377">
        <ele>546</ele>
        <time>2010-10-05T09:40:32Z</time>
      </trkpt>
      <trkpt lat="43.91942" lon="5.74307">
        <ele>544</ele>
        <time>2010-10-05T09:41:17Z</time>
      </trkpt>
      <trkpt lat="43.91881" lon="5.74275">
        <ele>552</ele>
        <time>2010-10-05T09:42:10Z</time>
      </trkpt>
      <trkpt lat="43.91862" lon="5.74228">
        <ele>560</ele>
        <time>2010-10-05T09:42:51Z</time>
      </trkpt>
      <trkpt lat="43.91865" lon="5.74175">
        <ele>557</ele>
        <time>2010-10-05T09:43:35Z</time>
      </trkpt>
      <trkpt lat="43.91855" lon="5.74147">
        <ele>567</ele>
        <time>2010-10-05T09:44:16Z</time>
      </trkpt>
      <trkpt lat="43.91816" lon="5.74142">
        <ele>563</ele>
        <time>2010-10-05T09:44:58Z</time>
      </trkpt>
      <trkpt lat="43.91781" lon="5.74066">
        <ele>551.5</ele>
        <time>2010-10-05T09:45:45Z</time>
      </trkpt>
      <trkpt lat="43.91735" lon="5.74065">
        <ele>548</ele>
        <time>2010-10-05T09:46:24Z</time>
      </trkpt>
      <trkpt lat="43.91706" lon="5.74125">
        <ele>555</ele>
        <time>2010-10-05T09:47:04Z</time>
      </trkpt>
      <trkpt lat="43.91679" lon="5.74161">
        <ele>549</ele>
        <time>2010-10-05T09:47:46Z</time>
      </trkpt>
      <trkpt lat="43.91679" lon="5.74185">
        <ele>545</ele>
        <time>2010-10-05T09:48:28Z</time>
      </trkpt>
      <trkpt lat="43.91615" lon="5.7419">
        <ele>547.5</ele>
        <time>2010-10-05T09:49:10Z</time>
      </trkpt>
      <trkpt lat="43.91563" lon="5.74216">
        <ele>557.5</ele>
        <time>2010-10-05T09:49:48Z</time>
      </trkpt>
      <trkpt lat="43.91529" lon="5.74254">
        <ele>547.5</ele>
        <time>2010-10-05T09:50:30Z</time>
      </trkpt>
      <trkpt lat="43.91485" lon="5.74204">
        <ele>552.5</ele>
        <time>2010-10-05T09:51:11Z</time>
      </trkpt>
      <trkpt lat="43.91457" lon="5.74208">
        <ele>558</ele>
        <time>2010-10-05T09:51:52Z</time>
      </trkpt>
      <trkpt lat="43.91459" lon="5.74123">
        <ele>570.5</ele>
        <time>2010-10-05T09:52:30Z</time>
      </trkpt>
      <trkpt lat="43.9145" lon="5.74066">
        <ele>571</ele>
        <time>2010-10-05T09:53:12Z</time>
      </trkpt>
      <trkpt lat="43.91454" lon="5.7404">
        <ele>577.5</ele>
        <time>2010-10-05T09:53:53Z</time>
      </trkpt>
      <trkpt lat="43.91433" lon="5.74001">
        <ele>578</ele>
        <time>2010-10-05T09:54:34Z</time>
      </trkpt>
      <trkpt lat="43.91413" lon="5.7395">
        <ele>584.5</ele>
        <time>2010-10-05T09:55:23Z</time>
      </trkpt>
      <trkpt lat="43.91432" lon="5.73867">
        <ele>588</ele>
        <time>2010-10-05T09:56:11Z</time>
      </trkpt>
      <trkpt lat="43.9143" lon="5.73802">
        <ele>584</ele>
        <time>2010-10-05T09:56:59Z</time>
      </trkpt>
      <trkpt lat="43.91422" lon="5.73735">
        <ele>577</ele>
        <time>2010-10-05T09:57:47Z</time>
      </trkpt>
      <trkpt lat="43.91393" lon="5.73687">
        <ele>576.5</ele>
        <time>2010-10-05T09:58:35Z</time>
      </trkpt>
      <trkpt lat="43.91319" lon="5.73657">
        <ele>576.5</ele>
        <time>2010-10-05T09:59:21Z</time>
      </trkpt>
      <trkpt lat="43.91373" lon="5.73594">
        <ele>580</ele>
        <time>2010-10-05T10:00:11Z</time>
      </trkpt>
      <trkpt lat="43.91374" lon="5.73536">
        <ele>592</ele>
        <time>2010-10-05T10:00:58Z</time>
      </trkpt>
      <trkpt lat="43.9138" lon="5.73511">
        <ele>591.5</ele>
        <time>2010-10-05T10:01:44Z</time>
      </trkpt>
      <trkpt lat="43.91434" lon="5.73422">
        <ele>591</ele>
        <time>2010-10-05T10:02:35Z</time>
      </trkpt>
      <trkpt lat="43.91411" lon="5.73394">
        <ele>606.5</ele>
        <time>2010-10-05T10:03:23Z</time>
      </trkpt>
      <trkpt lat="43.91391" lon="5.73382">
        <ele>580.5</ele>
        <time>2010-10-05T10:04:23Z</time>
      </trkpt>
      <trkpt lat="43.91301" lon="5.73378">
        <ele>599</ele>
        <time>2010-10-05T10:05:23Z</time>
      </trkpt>
      <trkpt lat="43.91217" lon="5.73361">
        <ele>596.5</ele>
        <time>2010-10-05T10:06:11Z</time>
      </trkpt>
      <trkpt lat="43.91209" lon="5.73255">
        <ele>604.5</ele>
        <time>2010-10-05T10:06:59Z</time>
      </trkpt>
      <trkpt lat="43.91227" lon="5.73214">
        <ele>607.5</ele>
        <time>2010-10-05T10:07:53Z</time>
      </trkpt>
      <trkpt lat="43.9127" lon="5.73111">
        <ele>606</ele>
        <time>2010-10-05T10:08:41Z</time>
      </trkpt>
      <trkpt lat="43.91279" lon="5.73051">
        <ele>609.5</ele>
        <time>2010-10-05T10:09:29Z</time>
      </trkpt>
      <trkpt lat="43.91279" lon="5.72974">
        <ele>608.5</ele>
        <time>2010-10-05T10:10:17Z</time>
      </trkpt>
      <trkpt lat="43.91254" lon="5.72907">
        <ele>602.5</ele>
        <time>2010-10-05T10:11:05Z</time>
      </trkpt>
      <trkpt lat="43.9127" lon="5.72797">
        <ele>598.5</ele>
        <time>2010-10-05T10:11:53Z</time>
      </trkpt>
      <trkpt lat="43.91257" lon="5.72721">
        <ele>599.5</ele>
        <time>2010-10-05T10:12:53Z</time>
      </trkpt>
      <trkpt lat="43.91285" lon="5.72589">
        <ele>599</ele>
        <time>2010-10-05T10:14:02Z</time>
      </trkpt>
      <trkpt lat="43.9124" lon="5.7252">
        <ele>600.5</ele>
        <time>2010-10-05T10:14:50Z</time>
      </trkpt>
      <trkpt lat="43.91259" lon="5.72502">
        <ele>601.5</ele>
        <time>2010-10-05T10:15:39Z</time>
      </trkpt>
      <trkpt lat="43.91282" lon="5.72482">
        <ele>602.5</ele>
        <time>2010-10-05T10:16:41Z</time>
      </trkpt>
      <trkpt lat="43.91382" lon="5.72322">
        <ele>605.5</ele>
        <time>2010-10-05T10:18:29Z</time>
      </trkpt>
      <trkpt lat="43.91527" lon="5.71714">
        <ele>590.5</ele>
        <time>2010-10-05T10:24:15Z</time>
      </trkpt>
      <trkpt lat="43.91458" lon="5.71709">
        <ele>600.5</ele>
        <time>2010-10-05T10:26:37Z</time>
      </trkpt>
      <trkpt lat="43.91359" lon="5.71667">
        <ele>609.5</ele>
        <time>2010-10-05T10:27:36Z</time>
      </trkpt>
      <trkpt lat="43.91316" lon="5.71634">
        <ele>613.5</ele>
        <time>2010-10-05T10:28:51Z</time>
      </trkpt>
      <trkpt lat="43.9121" lon="5.71572">
        <ele>617.5</ele>
        <time>2010-10-05T10:29:41Z</time>
      </trkpt>
      <trkpt lat="43.91239" lon="5.71618">
        <ele>621.5</ele>
        <time>2010-10-05T10:30:29Z</time>
      </trkpt>
      <trkpt lat="43.91213" lon="5.71631">
        <ele>618.5</ele>
        <time>2010-10-05T10:31:17Z</time>
      </trkpt>
      <trkpt lat="43.91166" lon="5.71641">
        <ele>619.5</ele>
        <time>2010-10-05T10:32:05Z</time>
      </trkpt>
      <trkpt lat="43.91107" lon="5.71616">
        <ele>619.5</ele>
        <time>2010-10-05T10:32:53Z</time>
      </trkpt>
      <trkpt lat="43.91043" lon="5.71582">
        <ele>642.5</ele>
        <time>2010-10-05T10:33:59Z</time>
      </trkpt>
      <trkpt lat="43.91037" lon="5.71581">
        <ele>650</ele>
        <time>2010-10-05T10:34:53Z</time>
      </trkpt>
      <trkpt lat="43.9102" lon="5.71574">
        <ele>656.5</ele>
        <time>2010-10-05T10:36:23Z</time>
      </trkpt>
      <trkpt lat="43.9102" lon="5.71574">
        <ele>657.5</ele>
        <time>2010-10-05T10:37:11Z</time>
      </trkpt>
      <trkpt lat="43.91013" lon="5.71572">
        <ele>660.5</ele>
        <time>2010-10-05T10:38:08Z</time>
      </trkpt>
      <trkpt lat="43.90976" lon="5.7159">
        <ele>632</ele>
        <time>2010-10-05T11:52:44Z</time>
      </trkpt>
      <trkpt lat="43.90944" lon="5.71606">
        <ele>629.5</ele>
        <time>2010-10-05T11:53:10Z</time>
      </trkpt>
      <trkpt lat="43.90918" lon="5.71616">
        <ele>623</ele>
        <time>2010-10-05T11:53:37Z</time>
      </trkpt>
      <trkpt lat="43.90891" lon="5.71623">
        <ele>617</ele>
        <time>2010-10-05T11:54:04Z</time>
      </trkpt>
      <trkpt lat="43.90866" lon="5.71638">
        <ele>613.5</ele>
        <time>2010-10-05T11:54:31Z</time>
      </trkpt>
      <trkpt lat="43.9084" lon="5.71637">
        <ele>611.5</ele>
        <time>2010-10-05T11:54:58Z</time>
      </trkpt>
      <trkpt lat="43.90807" lon="5.71618">
        <ele>610.5</ele>
        <time>2010-10-05T11:55:24Z</time>
      </trkpt>
      <trkpt lat="43.90781" lon="5.71595">
        <ele>605.5</ele>
        <time>2010-10-05T11:55:50Z</time>
      </trkpt>
      <trkpt lat="43.90752" lon="5.71572">
        <ele>598.5</ele>
        <time>2010-10-05T11:56:17Z</time>
      </trkpt>
      <trkpt lat="43.90723" lon="5.71551">
        <ele>592.5</ele>
        <time>2010-10-05T11:56:43Z</time>
      </trkpt>
      <trkpt lat="43.90593" lon="5.71514">
        <ele>590</ele>
        <time>2010-10-05T11:57:33Z</time>
      </trkpt>
      <trkpt lat="43.90606" lon="5.71477">
        <ele>576.5</ele>
        <time>2010-10-05T11:58:16Z</time>
      </trkpt>
      <trkpt lat="43.90556" lon="5.71419">
        <ele>595.5</ele>
        <time>2010-10-05T11:58:58Z</time>
      </trkpt>
      <trkpt lat="43.90537" lon="5.71397">
        <ele>584.5</ele>
        <time>2010-10-05T11:59:44Z</time>
      </trkpt>
      <trkpt lat="43.90455" lon="5.71384">
        <ele>587</ele>
        <time>2010-10-05T12:00:35Z</time>
      </trkpt>
      <trkpt lat="43.90423" lon="5.71358">
        <ele>589</ele>
        <time>2010-10-05T12:01:25Z</time>
      </trkpt>
      <trkpt lat="43.90374" lon="5.71322">
        <ele>590.5</ele>
        <time>2010-10-05T12:02:11Z</time>
      </trkpt>
      <trkpt lat="43.90329" lon="5.71296">
        <ele>598.5</ele>
        <time>2010-10-05T12:02:59Z</time>
      </trkpt>
      <trkpt lat="43.90272" lon="5.71278">
        <ele>598.5</ele>
        <time>2010-10-05T12:03:47Z</time>
      </trkpt>
      <trkpt lat="43.90198" lon="5.71246">
        <ele>608.5</ele>
        <time>2010-10-05T12:04:41Z</time>
      </trkpt>
      <trkpt lat="43.90164" lon="5.71233">
        <ele>600.5</ele>
        <time>2010-10-05T12:05:28Z</time>
      </trkpt>
      <trkpt lat="43.9013" lon="5.71211">
        <ele>596</ele>
        <time>2010-10-05T12:06:12Z</time>
      </trkpt>
      <trkpt lat="43.90083" lon="5.7114">
        <ele>597.5</ele>
        <time>2010-10-05T12:06:53Z</time>
      </trkpt>
      <trkpt lat="43.90001" lon="5.71078">
        <ele>608.5</ele>
        <time>2010-10-05T12:07:53Z</time>
      </trkpt>
      <trkpt lat="43.89993" lon="5.71017">
        <ele>578.5</ele>
        <time>2010-10-05T12:08:35Z</time>
      </trkpt>
      <trkpt lat="43.89915" lon="5.70968">
        <ele>597.5</ele>
        <time>2010-10-05T12:09:19Z</time>
      </trkpt>
      <trkpt lat="43.89879" lon="5.70951">
        <ele>598</ele>
        <time>2010-10-05T12:10:05Z</time>
      </trkpt>
      <trkpt lat="43.89825" lon="5.70885">
        <ele>608</ele>
        <time>2010-10-05T12:10:59Z</time>
      </trkpt>
      <trkpt lat="43.89795" lon="5.70828">
        <ele>602.5</ele>
        <time>2010-10-05T12:11:46Z</time>
      </trkpt>
      <trkpt lat="43.89752" lon="5.70769">
        <ele>602</ele>
        <time>2010-10-05T12:12:35Z</time>
      </trkpt>
      <trkpt lat="43.89708" lon="5.70726">
        <ele>594</ele>
        <time>2010-10-05T12:13:23Z</time>
      </trkpt>
      <trkpt lat="43.89656" lon="5.70699">
        <ele>582.5</ele>
        <time>2010-10-05T12:14:05Z</time>
      </trkpt>
      <trkpt lat="43.89635" lon="5.70673">
        <ele>592.5</ele>
        <time>2010-10-05T12:14:53Z</time>
      </trkpt>
      <trkpt lat="43.89565" lon="5.70621">
        <ele>592.5</ele>
        <time>2010-10-05T12:15:41Z</time>
      </trkpt>
      <trkpt lat="43.89507" lon="5.70607">
        <ele>606</ele>
        <time>2010-10-05T12:16:24Z</time>
      </trkpt>
      <trkpt lat="43.89448" lon="5.70603">
        <ele>605.5</ele>
        <time>2010-10-05T12:17:08Z</time>
      </trkpt>
      <trkpt lat="43.89412" lon="5.70604">
        <ele>605.5</ele>
        <time>2010-10-05T12:17:50Z</time>
      </trkpt>
      <trkpt lat="43.89344" lon="5.70606">
        <ele>613</ele>
        <time>2010-10-05T12:18:34Z</time>
      </trkpt>
      <trkpt lat="43.89289" lon="5.7057">
        <ele>616</ele>
        <time>2010-10-05T12:19:18Z</time>
      </trkpt>
      <trkpt lat="43.89216" lon="5.70586">
        <ele>607.5</ele>
        <time>2010-10-05T12:20:01Z</time>
      </trkpt>
      <trkpt lat="43.89186" lon="5.70599">
        <ele>605</ele>
        <time>2010-10-05T12:20:45Z</time>
      </trkpt>
      <trkpt lat="43.89124" lon="5.70614">
        <ele>605</ele>
        <time>2010-10-05T12:21:28Z</time>
      </trkpt>
      <trkpt lat="43.89097" lon="5.70616">
        <ele>602</ele>
        <time>2010-10-05T12:22:14Z</time>
      </trkpt>
      <trkpt lat="43.89015" lon="5.7065">
        <ele>598.5</ele>
        <time>2010-10-05T12:23:10Z</time>
      </trkpt>
      <trkpt lat="43.88975" lon="5.70677">
        <ele>604</ele>
        <time>2010-10-05T12:23:53Z</time>
      </trkpt>
      <trkpt lat="43.88934" lon="5.70723">
        <ele>603.5</ele>
        <time>2010-10-05T12:24:34Z</time>
      </trkpt>
      <trkpt lat="43.88905" lon="5.70802">
        <ele>629.5</ele>
        <time>2010-10-05T12:25:17Z</time>
      </trkpt>
      <trkpt lat="43.88884" lon="5.70809">
        <ele>624.5</ele>
        <time>2010-10-05T12:25:59Z</time>
      </trkpt>
      <trkpt lat="43.88857" lon="5.70813">
        <ele>610.5</ele>
        <time>2010-10-05T12:26:42Z</time>
      </trkpt>
      <trkpt lat="43.88823" lon="5.70829">
        <ele>598</ele>
        <time>2010-10-05T12:27:28Z</time>
      </trkpt>
      <trkpt lat="43.88788" lon="5.70838">
        <ele>619.5</ele>
        <time>2010-10-05T12:28:11Z</time>
      </trkpt>
      <trkpt lat="43.8872" lon="5.70849">
        <ele>607.5</ele>
        <time>2010-10-05T12:28:59Z</time>
      </trkpt>
      <trkpt lat="43.88675" lon="5.70857">
        <ele>588</ele>
        <time>2010-10-05T12:29:40Z</time>
      </trkpt>
      <trkpt lat="43.88631" lon="5.70913">
        <ele>603.5</ele>
        <time>2010-10-05T12:30:29Z</time>
      </trkpt>
      <trkpt lat="43.8859" lon="5.70858">
        <ele>562</ele>
        <time>2010-10-05T12:31:12Z</time>
      </trkpt>
      <trkpt lat="43.88612" lon="5.70794">
        <ele>587.5</ele>
        <time>2010-10-05T12:32:05Z</time>
      </trkpt>
      <trkpt lat="43.88576" lon="5.70731">
        <ele>570.5</ele>
        <time>2010-10-05T12:32:49Z</time>
      </trkpt>
      <trkpt lat="43.88602" lon="5.70676">
        <ele>576.5</ele>
        <time>2010-10-05T12:33:35Z</time>
      </trkpt>
      <trkpt lat="43.88591" lon="5.70615">
        <ele>571.5</ele>
        <time>2010-10-05T12:34:22Z</time>
      </trkpt>
      <trkpt lat="43.88557" lon="5.70587">
        <ele>544</ele>
        <time>2010-10-05T12:35:09Z</time>
      </trkpt>
      <trkpt lat="43.8852" lon="5.70576">
        <ele>564.5</ele>
        <time>2010-10-05T12:35:51Z</time>
      </trkpt>
      <trkpt lat="43.88489" lon="5.70572">
        <ele>557.5</ele>
        <time>2010-10-05T12:36:40Z</time>
      </trkpt>
      <trkpt lat="43.88494" lon="5.70612">
        <ele>565.5</ele>
        <time>2010-10-05T12:37:29Z</time>
      </trkpt>
      <trkpt lat="43.88471" lon="5.70612">
        <ele>567</ele>
        <time>2010-10-05T12:38:11Z</time>
      </trkpt>
      <trkpt lat="43.88466" lon="5.70597">
        <ele>560.5</ele>
        <time>2010-10-05T12:38:52Z</time>
      </trkpt>
      <trkpt lat="43.88431" lon="5.70591">
        <ele>549</ele>
        <time>2010-10-05T12:39:35Z</time>
      </trkpt>
      <trkpt lat="43.884" lon="5.70577">
        <ele>526.5</ele>
        <time>2010-10-05T12:40:21Z</time>
      </trkpt>
      <trkpt lat="43.88423" lon="5.70556">
        <ele>510.5</ele>
        <time>2010-10-05T12:41:02Z</time>
      </trkpt>
      <trkpt lat="43.88347" lon="5.70551">
        <ele>537.5</ele>
        <time>2010-10-05T12:41:44Z</time>
      </trkpt>
      <trkpt lat="43.88303" lon="5.70534">
        <ele>535</ele>
        <time>2010-10-05T12:42:28Z</time>
      </trkpt>
      <trkpt lat="43.88235" lon="5.70541">
        <ele>501.5</ele>
        <time>2010-10-05T12:43:13Z</time>
      </trkpt>
      <trkpt lat="43.88186" lon="5.70537">
        <ele>553.5</ele>
        <time>2010-10-05T12:43:57Z</time>
      </trkpt>
      <trkpt lat="43.88141" lon="5.70564">
        <ele>506.5</ele>
        <time>2010-10-05T12:44:40Z</time>
      </trkpt>
      <trkpt lat="43.88133" lon="5.70575">
        <ele>502.5</ele>
        <time>2010-10-05T12:45:21Z</time>
      </trkpt>
      <trkpt lat="43.88069" lon="5.7057">
        <ele>499</ele>
        <time>2010-10-05T12:46:10Z</time>
      </trkpt>
      <trkpt lat="43.88042" lon="5.7056">
        <ele>496.5</ele>
        <time>2010-10-05T12:46:58Z</time>
      </trkpt>
      <trkpt lat="43.88017" lon="5.70507">
        <ele>505.5</ele>
        <time>2010-10-05T12:47:47Z</time>
      </trkpt>
      <trkpt lat="43.88012" lon="5.70474">
        <ele>493</ele>
        <time>2010-10-05T12:48:28Z</time>
      </trkpt>
      <trkpt lat="43.87994" lon="5.70341">
        <ele>499</ele>
        <time>2010-10-05T12:49:16Z</time>
      </trkpt>
      <trkpt lat="43.87985" lon="5.70291">
        <ele>491</ele>
        <time>2010-10-05T12:50:05Z</time>
      </trkpt>
      <trkpt lat="43.87956" lon="5.70284">
        <ele>487.5</ele>
        <time>2010-10-05T12:50:53Z</time>
      </trkpt>
      <trkpt lat="43.87949" lon="5.70288">
        <ele>495</ele>
        <time>2010-10-05T12:51:41Z</time>
      </trkpt>
      <trkpt lat="43.87909" lon="5.70312">
        <ele>491</ele>
        <time>2010-10-05T12:52:29Z</time>
      </trkpt>
      <trkpt lat="43.87897" lon="5.70324">
        <ele>493</ele>
        <time>2010-10-05T12:53:17Z</time>
      </trkpt>
      <trkpt lat="43.87881" lon="5.70332">
        <ele>498</ele>
        <time>2010-10-05T12:53:59Z</time>
      </trkpt>
      <trkpt lat="43.88077" lon="5.70023">
        <ele>493</ele>
        <time>2010-10-05T12:59:23Z</time>
      </trkpt>
      <trkpt lat="43.88039" lon="5.70071">
        <ele>482</ele>
        <time>2010-10-05T13:00:10Z</time>
      </trkpt>
      <trkpt lat="43.88022" lon="5.70074">
        <ele>492.5</ele>
        <time>2010-10-05T13:00:52Z</time>
      </trkpt>
      <trkpt lat="43.87986" lon="5.70081">
        <ele>497</ele>
        <time>2010-10-05T13:01:35Z</time>
      </trkpt>
      <trkpt lat="43.87948" lon="5.70094">
        <ele>487.5</ele>
        <time>2010-10-05T13:02:20Z</time>
      </trkpt>
      <trkpt lat="43.87898" lon="5.70158">
        <ele>497</ele>
        <time>2010-10-05T13:03:10Z</time>
      </trkpt>
      <trkpt lat="43.87877" lon="5.70231">
        <ele>504.5</ele>
        <time>2010-10-05T13:03:58Z</time>
      </trkpt>
      <trkpt lat="43.87864" lon="5.70264">
        <ele>510.5</ele>
        <time>2010-10-05T13:04:40Z</time>
      </trkpt>
      <trkpt lat="43.87874" lon="5.70214">
        <ele>495</ele>
        <time>2010-10-05T13:05:29Z</time>
      </trkpt>
      <trkpt lat="43.87883" lon="5.70162">
        <ele>502</ele>
        <time>2010-10-05T13:06:16Z</time>
      </trkpt>
      <trkpt lat="43.87896" lon="5.70087">
        <ele>509</ele>
        <time>2010-10-05T13:07:11Z</time>
      </trkpt>
      <trkpt lat="43.87923" lon="5.7005">
        <ele>514</ele>
        <time>2010-10-05T13:07:59Z</time>
      </trkpt>
      <trkpt lat="43.87951" lon="5.69999">
        <ele>534.5</ele>
        <time>2010-10-05T13:08:47Z</time>
      </trkpt>
      <trkpt lat="43.8795" lon="5.69945">
        <ele>534</ele>
        <time>2010-10-05T13:09:35Z</time>
      </trkpt>
      <trkpt lat="43.88042" lon="5.69956">
        <ele>520</ele>
        <time>2010-10-05T13:10:17Z</time>
      </trkpt>
      <trkpt lat="43.87969" lon="5.69855">
        <ele>533.5</ele>
        <time>2010-10-05T13:11:02Z</time>
      </trkpt>
      <trkpt lat="43.87976" lon="5.69823">
        <ele>548.5</ele>
        <time>2010-10-05T13:11:54Z</time>
      </trkpt>
      <trkpt lat="43.87965" lon="5.69771">
        <ele>548.5</ele>
        <time>2010-10-05T13:12:46Z</time>
      </trkpt>
      <trkpt lat="43.87925" lon="5.69758">
        <ele>547.5</ele>
        <time>2010-10-05T13:13:37Z</time>
      </trkpt>
      <trkpt lat="43.87919" lon="5.69694">
        <ele>550.5</ele>
        <time>2010-10-05T13:14:35Z</time>
      </trkpt>
      <trkpt lat="43.87914" lon="5.69623">
        <ele>543.5</ele>
        <time>2010-10-05T13:15:22Z</time>
      </trkpt>
      <trkpt lat="43.87885" lon="5.69552">
        <ele>556.5</ele>
        <time>2010-10-05T13:16:08Z</time>
      </trkpt>
      <trkpt lat="43.87878" lon="5.69556">
        <ele>578</ele>
        <time>2010-10-05T13:16:52Z</time>
      </trkpt>
      <trkpt lat="43.87878" lon="5.69554">
        <ele>579.5</ele>
        <time>2010-10-05T13:17:38Z</time>
      </trkpt>
      <trkpt lat="43.87885" lon="5.69556">
        <ele>569.5</ele>
        <time>2010-10-05T13:18:17Z</time>
      </trkpt>
      <trkpt lat="43.87868" lon="5.69541">
        <ele>544.5</ele>
        <time>2010-10-05T13:18:57Z</time>
      </trkpt>
      <trkpt lat="43.87876" lon="5.69559">
        <ele>575</ele>
        <time>2010-10-05T13:19:41Z</time>
      </trkpt>
      <trkpt lat="43.87884" lon="5.6955">
        <ele>571.5</ele>
        <time>2010-10-05T13:20:22Z</time>
      </trkpt>
      <trkpt lat="43.87779" lon="5.69428">
        <ele>583</ele>
        <time>2010-10-05T13:21:08Z</time>
      </trkpt>
      <trkpt lat="43.8783" lon="5.69413">
        <ele>578.5</ele>
        <time>2010-10-05T13:21:51Z</time>
      </trkpt>
      <trkpt lat="43.87843" lon="5.69379">
        <ele>576</ele>
        <time>2010-10-05T13:22:33Z</time>
      </trkpt>
      <trkpt lat="43.87881" lon="5.6937">
        <ele>596.5</ele>
        <time>2010-10-05T13:23:20Z</time>
      </trkpt>
      <trkpt lat="43.87817" lon="5.69268">
        <ele>612.5</ele>
        <time>2010-10-05T13:24:02Z</time>
      </trkpt>
      <trkpt lat="43.87775" lon="5.69171">
        <ele>706</ele>
        <time>2010-10-05T13:24:44Z</time>
      </trkpt>
      <trkpt lat="43.878" lon="5.69125">
        <ele>592.5</ele>
        <time>2010-10-05T13:25:26Z</time>
      </trkpt>
      <trkpt lat="43.87827" lon="5.69105">
        <ele>594.5</ele>
        <time>2010-10-05T13:26:09Z</time>
      </trkpt>
      <trkpt lat="43.87829" lon="5.69056">
        <ele>698</ele>
        <time>2010-10-05T13:26:51Z</time>
      </trkpt>
      <trkpt lat="43.87837" lon="5.68955">
        <ele>617</ele>
        <time>2010-10-05T13:27:33Z</time>
      </trkpt>
      <trkpt lat="43.87857" lon="5.68908">
        <ele>620</ele>
        <time>2010-10-05T13:28:17Z</time>
      </trkpt>
      <trkpt lat="43.87869" lon="5.68859">
        <ele>654.5</ele>
        <time>2010-10-05T13:29:00Z</time>
      </trkpt>
      <trkpt lat="43.87885" lon="5.68798">
        <ele>610</ele>
        <time>2010-10-05T13:29:42Z</time>
      </trkpt>
      <trkpt lat="43.87913" lon="5.68674">
        <ele>568.5</ele>
        <time>2010-10-05T13:30:25Z</time>
      </trkpt>
      <trkpt lat="43.87913" lon="5.68647">
        <ele>574</ele>
        <time>2010-10-05T13:31:08Z</time>
      </trkpt>
      <trkpt lat="43.87906" lon="5.68654">
        <ele>609</ele>
        <time>2010-10-05T13:31:53Z</time>
      </trkpt>
      <trkpt lat="43.87892" lon="5.68573">
        <ele>658.5</ele>
        <time>2010-10-05T13:32:39Z</time>
      </trkpt>
      <trkpt lat="43.87849" lon="5.68511">
        <ele>665.5</ele>
        <time>2010-10-05T13:33:21Z</time>
      </trkpt>
      <trkpt lat="43.87865" lon="5.68472">
        <ele>657</ele>
        <time>2010-10-05T13:34:03Z</time>
      </trkpt>
      <trkpt lat="43.87883" lon="5.68403">
        <ele>607.5</ele>
        <time>2010-10-05T13:34:46Z</time>
      </trkpt>
      <trkpt lat="43.87878" lon="5.68334">
        <ele>607.5</ele>
        <time>2010-10-05T13:35:28Z</time>
      </trkpt>
      <trkpt lat="43.87875" lon="5.68245">
        <ele>616</ele>
        <time>2010-10-05T13:36:11Z</time>
      </trkpt>
      <trkpt lat="43.87865" lon="5.6818">
        <ele>608</ele>
        <time>2010-10-05T13:36:52Z</time>
      </trkpt>
      <trkpt lat="43.87876" lon="5.68116">
        <ele>615.5</ele>
        <time>2010-10-05T13:37:35Z</time>
      </trkpt>
      <trkpt lat="43.87865" lon="5.68036">
        <ele>612</ele>
        <time>2010-10-05T13:38:16Z</time>
      </trkpt>
      <trkpt lat="43.87883" lon="5.67973">
        <ele>584.5</ele>
        <time>2010-10-05T13:38:58Z</time>
      </trkpt>
      <trkpt lat="43.87872" lon="5.67904">
        <ele>589</ele>
        <time>2010-10-05T13:39:43Z</time>
      </trkpt>
      <trkpt lat="43.87865" lon="5.67834">
        <ele>595</ele>
        <time>2010-10-05T13:40:26Z</time>
      </trkpt>
      <trkpt lat="43.87895" lon="5.67758">
        <ele>639.5</ele>
        <time>2010-10-05T13:41:08Z</time>
      </trkpt>
      <trkpt lat="43.87874" lon="5.67689">
        <ele>606.5</ele>
        <time>2010-10-05T13:41:50Z</time>
      </trkpt>
      <trkpt lat="43.8784" lon="5.6757">
        <ele>611.5</ele>
        <time>2010-10-05T13:42:33Z</time>
      </trkpt>
      <trkpt lat="43.87869" lon="5.67545">
        <ele>590</ele>
        <time>2010-10-05T13:43:14Z</time>
      </trkpt>
      <trkpt lat="43.87842" lon="5.67443">
        <ele>551</ele>
        <time>2010-10-05T13:43:57Z</time>
      </trkpt>
      <trkpt lat="43.87851" lon="5.67419">
        <ele>492.5</ele>
        <time>2010-10-05T13:44:39Z</time>
      </trkpt>
      <trkpt lat="43.87813" lon="5.67325">
        <ele>580.5</ele>
        <time>2010-10-05T13:45:22Z</time>
      </trkpt>
      <trkpt lat="43.87783" lon="5.67269">
        <ele>609</ele>
        <time>2010-10-05T13:46:06Z</time>
      </trkpt>
      <trkpt lat="43.87748" lon="5.67191">
        <ele>595</ele>
        <time>2010-10-05T13:46:48Z</time>
      </trkpt>
      <trkpt lat="43.87729" lon="5.67149">
        <ele>605.5</ele>
        <time>2010-10-05T13:47:31Z</time>
      </trkpt>
      <trkpt lat="43.87723" lon="5.67043">
        <ele>637</ele>
        <time>2010-10-05T13:48:16Z</time>
      </trkpt>
      <trkpt lat="43.87748" lon="5.66997">
        <ele>615</ele>
        <time>2010-10-05T13:48:58Z</time>
      </trkpt>
      <trkpt lat="43.87769" lon="5.66947">
        <ele>609</ele>
        <time>2010-10-05T13:49:40Z</time>
      </trkpt>
      <trkpt lat="43.87793" lon="5.66872">
        <ele>610.5</ele>
        <time>2010-10-05T13:50:23Z</time>
      </trkpt>
      <trkpt lat="43.87795" lon="5.66818">
        <ele>610.5</ele>
        <time>2010-10-05T13:51:05Z</time>
      </trkpt>
      <trkpt lat="43.87768" lon="5.66771">
        <ele>689.5</ele>
        <time>2010-10-05T13:51:48Z</time>
      </trkpt>
      <trkpt lat="43.87799" lon="5.6668">
        <ele>591.5</ele>
        <time>2010-10-05T13:52:33Z</time>
      </trkpt>
      <trkpt lat="43.87823" lon="5.6663">
        <ele>600.5</ele>
        <time>2010-10-05T13:53:16Z</time>
      </trkpt>
      <trkpt lat="43.87866" lon="5.66561">
        <ele>606</ele>
        <time>2010-10-05T13:54:03Z</time>
      </trkpt>
      <trkpt lat="43.87867" lon="5.66575">
        <ele>584.5</ele>
        <time>2010-10-05T13:54:53Z</time>
      </trkpt>
      <trkpt lat="43.8786" lon="5.66566">
        <ele>582</ele>
        <time>2010-10-05T13:55:35Z</time>
      </trkpt>
      <trkpt lat="43.87859" lon="5.66564">
        <ele>579.5</ele>
        <time>2010-10-05T13:56:28Z</time>
      </trkpt>
      <trkpt lat="43.87876" lon="5.66566">
        <ele>580.5</ele>
        <time>2010-10-05T13:57:12Z</time>
      </trkpt>
      <trkpt lat="43.87894" lon="5.66488">
        <ele>631</ele>
        <time>2010-10-05T13:57:55Z</time>
      </trkpt>
      <trkpt lat="43.87888" lon="5.66385">
        <ele>514</ele>
        <time>2010-10-05T13:58:38Z</time>
      </trkpt>
      <trkpt lat="43.87969" lon="5.66373">
        <ele>593.5</ele>
        <time>2010-10-05T13:59:30Z</time>
      </trkpt>
      <trkpt lat="43.87972" lon="5.66309">
        <ele>596.5</ele>
        <time>2010-10-05T14:00:29Z</time>
      </trkpt>
      <trkpt lat="43.87992" lon="5.66287">
        <ele>589.5</ele>
        <time>2010-10-05T14:01:29Z</time>
      </trkpt>
      <trkpt lat="43.88027" lon="5.66131">
        <ele>592.5</ele>
        <time>2010-10-05T14:02:16Z</time>
      </trkpt>
      <trkpt lat="43.87986" lon="5.66102">
        <ele>581.5</ele>
        <time>2010-10-05T14:03:01Z</time>
      </trkpt>
      <trkpt lat="43.87942" lon="5.6604">
        <ele>627.5</ele>
        <time>2010-10-05T14:03:49Z</time>
      </trkpt>
      <trkpt lat="43.87893" lon="5.66012">
        <ele>559</ele>
        <time>2010-10-05T14:04:32Z</time>
      </trkpt>
      <trkpt lat="43.87919" lon="5.66012">
        <ele>630.5</ele>
        <time>2010-10-05T14:05:15Z</time>
      </trkpt>
      <trkpt lat="43.87928" lon="5.6601">
        <ele>593.5</ele>
        <time>2010-10-05T14:05:59Z</time>
      </trkpt>
      <trkpt lat="43.87925" lon="5.6601">
        <ele>597</ele>
        <time>2010-10-05T14:06:41Z</time>
      </trkpt>
      <trkpt lat="43.87914" lon="5.66014">
        <ele>592</ele>
        <time>2010-10-05T14:07:29Z</time>
      </trkpt>
      <trkpt lat="43.87997" lon="5.65869">
        <ele>602</ele>
        <time>2010-10-05T14:30:42Z</time>
      </trkpt>
      <trkpt lat="43.87991" lon="5.65783">
        <ele>542</ele>
        <time>2010-10-05T14:31:26Z</time>
      </trkpt>
      <trkpt lat="43.88004" lon="5.65758">
        <ele>629</ele>
        <time>2010-10-05T14:32:12Z</time>
      </trkpt>
      <trkpt lat="43.87996" lon="5.65674">
        <ele>557</ele>
        <time>2010-10-05T14:32:56Z</time>
      </trkpt>
      <trkpt lat="43.87996" lon="5.6559">
        <ele>595.5</ele>
        <time>2010-10-05T14:33:40Z</time>
      </trkpt>
      <trkpt lat="43.88005" lon="5.65523">
        <ele>576</ele>
        <time>2010-10-05T14:34:24Z</time>
      </trkpt>
      <trkpt lat="43.88018" lon="5.65458">
        <ele>602.5</ele>
        <time>2010-10-05T14:35:06Z</time>
      </trkpt>
      <trkpt lat="43.8801" lon="5.65428">
        <ele>617.5</ele>
        <time>2010-10-05T14:35:53Z</time>
      </trkpt>
      <trkpt lat="43.87988" lon="5.65259">
        <ele>677</ele>
        <time>2010-10-05T14:36:35Z</time>
      </trkpt>
      <trkpt lat="43.88057" lon="5.65259">
        <ele>616.5</ele>
        <time>2010-10-05T14:37:18Z</time>
      </trkpt>
      <trkpt lat="43.88047" lon="5.65181">
        <ele>724</ele>
        <time>2010-10-05T14:38:01Z</time>
      </trkpt>
      <trkpt lat="43.88044" lon="5.65112">
        <ele>608</ele>
        <time>2010-10-05T14:38:45Z</time>
      </trkpt>
      <trkpt lat="43.88051" lon="5.65107">
        <ele>614</ele>
        <time>2010-10-05T14:39:29Z</time>
      </trkpt>
      <trkpt lat="43.88067" lon="5.65">
        <ele>633.5</ele>
        <time>2010-10-05T14:40:15Z</time>
      </trkpt>
      <trkpt lat="43.88075" lon="5.64938">
        <ele>611</ele>
        <time>2010-10-05T14:40:58Z</time>
      </trkpt>
      <trkpt lat="43.88191" lon="5.64941">
        <ele>617</ele>
        <time>2010-10-05T14:41:42Z</time>
      </trkpt>
      <trkpt lat="43.88124" lon="5.64829">
        <ele>636</ele>
        <time>2010-10-05T14:42:27Z</time>
      </trkpt>
      <trkpt lat="43.88128" lon="5.64804">
        <ele>531</ele>
        <time>2010-10-05T14:43:11Z</time>
      </trkpt>
      <trkpt lat="43.8817" lon="5.64703">
        <ele>703.5</ele>
        <time>2010-10-05T14:43:53Z</time>
      </trkpt>
      <trkpt lat="43.88238" lon="5.6462">
        <ele>749</ele>
        <time>2010-10-05T14:44:38Z</time>
      </trkpt>
      <trkpt lat="43.88237" lon="5.64563">
        <ele>655.5</ele>
        <time>2010-10-05T14:45:21Z</time>
      </trkpt>
      <trkpt lat="43.88231" lon="5.64487">
        <ele>630</ele>
        <time>2010-10-05T14:46:04Z</time>
      </trkpt>
      <trkpt lat="43.88245" lon="5.64437">
        <ele>606</ele>
        <time>2010-10-05T14:46:47Z</time>
      </trkpt>
      <trkpt lat="43.88246" lon="5.64339">
        <ele>642.5</ele>
        <time>2010-10-05T14:47:30Z</time>
      </trkpt>
      <trkpt lat="43.8824" lon="5.64261">
        <ele>605.5</ele>
        <time>2010-10-05T14:48:11Z</time>
      </trkpt>
      <trkpt lat="43.88243" lon="5.64187">
        <ele>679</ele>
        <time>2010-10-05T14:48:54Z</time>
      </trkpt>
      <trkpt lat="43.88255" lon="5.64112">
        <ele>629</ele>
        <time>2010-10-05T14:49:35Z</time>
      </trkpt>
      <trkpt lat="43.88242" lon="5.6403">
        <ele>666</ele>
        <time>2010-10-05T14:50:22Z</time>
      </trkpt>
      <trkpt lat="43.8826" lon="5.63962">
        <ele>668</ele>
        <time>2010-10-05T14:51:03Z</time>
      </trkpt>
      <trkpt lat="43.88226" lon="5.63914">
        <ele>646</ele>
        <time>2010-10-05T14:51:46Z</time>
      </trkpt>
      <trkpt lat="43.88257" lon="5.63847">
        <ele>634</ele>
        <time>2010-10-05T14:52:29Z</time>
      </trkpt>
      <trkpt lat="43.88268" lon="5.63763">
        <ele>637.5</ele>
        <time>2010-10-05T14:53:12Z</time>
      </trkpt>
      <trkpt lat="43.88291" lon="5.63674">
        <ele>685</ele>
        <time>2010-10-05T14:53:53Z</time>
      </trkpt>
      <trkpt lat="43.88291" lon="5.63606">
        <ele>661.5</ele>
        <time>2010-10-05T14:54:36Z</time>
      </trkpt>
      <trkpt lat="43.88321" lon="5.63513">
        <ele>686.5</ele>
        <time>2010-10-05T14:55:18Z</time>
      </trkpt>
      <trkpt lat="43.8835" lon="5.63471">
        <ele>664</ele>
        <time>2010-10-05T14:56:00Z</time>
      </trkpt>
      <trkpt lat="43.88365" lon="5.6339">
        <ele>672.5</ele>
        <time>2010-10-05T14:56:45Z</time>
      </trkpt>
      <trkpt lat="43.88366" lon="5.63364">
        <ele>669.5</ele>
        <time>2010-10-05T14:57:28Z</time>
      </trkpt>
      <trkpt lat="43.88382" lon="5.63253">
        <ele>663.5</ele>
        <time>2010-10-05T14:58:11Z</time>
      </trkpt>
      <trkpt lat="43.88377" lon="5.63256">
        <ele>655</ele>
        <time>2010-10-05T14:58:57Z</time>
      </trkpt>
      <trkpt lat="43.88409" lon="5.63197">
        <ele>657.5</ele>
        <time>2010-10-05T14:59:42Z</time>
      </trkpt>
      <trkpt lat="43.8838" lon="5.63262">
        <ele>638</ele>
        <time>2010-10-05T15:00:24Z</time>
      </trkpt>
      <trkpt lat="43.88384" lon="5.63241">
        <ele>701.5</ele>
        <time>2010-10-05T15:01:08Z</time>
      </trkpt>
      <trkpt lat="43.88411" lon="5.63253">
        <ele>708</ele>
        <time>2010-10-05T15:01:49Z</time>
      </trkpt>
      <trkpt lat="43.88377" lon="5.63249">
        <ele>667</ele>
        <time>2010-10-05T15:02:33Z</time>
      </trkpt>
      <trkpt lat="43.88367" lon="5.63203">
        <ele>646.5</ele>
        <time>2010-10-05T15:03:15Z</time>
      </trkpt>
      <trkpt lat="43.88312" lon="5.63216">
        <ele>669</ele>
        <time>2010-10-05T15:03:57Z</time>
      </trkpt>
      <trkpt lat="43.88308" lon="5.63148">
        <ele>650.5</ele>
        <time>2010-10-05T15:04:40Z</time>
      </trkpt>
      <trkpt lat="43.88224" lon="5.63028">
        <ele>641</ele>
        <time>2010-10-05T15:06:23Z</time>
      </trkpt>
      <trkpt lat="43.88183" lon="5.62996">
        <ele>650</ele>
        <time>2010-10-05T15:07:11Z</time>
      </trkpt>
      <trkpt lat="43.88176" lon="5.62978">
        <ele>652.5</ele>
        <time>2010-10-05T15:07:58Z</time>
      </trkpt>
      <trkpt lat="43.88182" lon="5.62949">
        <ele>633.5</ele>
        <time>2010-10-05T15:08:40Z</time>
      </trkpt>
      <trkpt lat="43.88161" lon="5.62969">
        <ele>625</ele>
        <time>2010-10-05T15:09:22Z</time>
      </trkpt>
      <trkpt lat="43.88124" lon="5.62947">
        <ele>610.5</ele>
        <time>2010-10-05T15:10:04Z</time>
      </trkpt>
      <trkpt lat="43.88104" lon="5.62866">
        <ele>604.5</ele>
        <time>2010-10-05T15:10:50Z</time>
      </trkpt>
      <trkpt lat="43.8818" lon="5.62849">
        <ele>627</ele>
        <time>2010-10-05T15:11:34Z</time>
      </trkpt>
      <trkpt lat="43.8819" lon="5.62876">
        <ele>641.5</ele>
        <time>2010-10-05T15:12:18Z</time>
      </trkpt>
      <trkpt lat="43.88215" lon="5.62855">
        <ele>644.5</ele>
        <time>2010-10-05T15:12:59Z</time>
      </trkpt>
      <trkpt lat="43.88256" lon="5.62879">
        <ele>619</ele>
        <time>2010-10-05T15:13:41Z</time>
      </trkpt>
      <trkpt lat="43.88303" lon="5.62889">
        <ele>592.5</ele>
        <time>2010-10-05T15:14:24Z</time>
      </trkpt>
      <trkpt lat="43.8834" lon="5.62879">
        <ele>603</ele>
        <time>2010-10-05T15:15:07Z</time>
      </trkpt>
      <trkpt lat="43.88364" lon="5.62944">
        <ele>549</ele>
        <time>2010-10-05T15:15:55Z</time>
      </trkpt>
      <trkpt lat="43.88493" lon="5.62887">
        <ele>611</ele>
        <time>2010-10-05T15:16:40Z</time>
      </trkpt>
      <trkpt lat="43.88455" lon="5.62896">
        <ele>595</ele>
        <time>2010-10-05T15:17:23Z</time>
      </trkpt>
      <trkpt lat="43.88504" lon="5.62913">
        <ele>532.5</ele>
        <time>2010-10-05T15:18:10Z</time>
      </trkpt>
      <trkpt lat="43.88564" lon="5.62832">
        <ele>566.5</ele>
        <time>2010-10-05T15:18:52Z</time>
      </trkpt>
      <trkpt lat="43.88586" lon="5.62826">
        <ele>556</ele>
        <time>2010-10-05T15:19:34Z</time>
      </trkpt>
      <trkpt lat="43.88502" lon="5.62807">
        <ele>590</ele>
        <time>2010-10-05T15:20:23Z</time>
      </trkpt>
      <trkpt lat="43.88478" lon="5.62811">
        <ele>588.5</ele>
        <time>2010-10-05T15:21:07Z</time>
      </trkpt>
      <trkpt lat="43.88419" lon="5.62822">
        <ele>561.5</ele>
        <time>2010-10-05T15:21:51Z</time>
      </trkpt>
      <trkpt lat="43.8838" lon="5.62782">
        <ele>619</ele>
        <time>2010-10-05T15:22:34Z</time>
      </trkpt>
      <trkpt lat="43.8834" lon="5.628">
        <ele>551</ele>
        <time>2010-10-05T15:23:21Z</time>
      </trkpt>
      <trkpt lat="43.88284" lon="5.62736">
        <ele>569</ele>
        <time>2010-10-05T15:24:11Z</time>
      </trkpt>
      <trkpt lat="43.88281" lon="5.62664">
        <ele>563.5</ele>
        <time>2010-10-05T15:24:56Z</time>
      </trkpt>
      <trkpt lat="43.88234" lon="5.62669">
        <ele>524</ele>
        <time>2010-10-05T15:25:40Z</time>
      </trkpt>
      <trkpt lat="43.88189" lon="5.62608">
        <ele>529</ele>
        <time>2010-10-05T15:26:28Z</time>
      </trkpt>
      <trkpt lat="43.8816" lon="5.62559">
        <ele>489.5</ele>
        <time>2010-10-05T15:27:21Z</time>
      </trkpt>
      <trkpt lat="43.88073" lon="5.62537">
        <ele>556</ele>
        <time>2010-10-05T15:28:10Z</time>
      </trkpt>
      <trkpt lat="43.88035" lon="5.62482">
        <ele>546.5</ele>
        <time>2010-10-05T15:28:59Z</time>
      </trkpt>
      <trkpt lat="43.87972" lon="5.62435">
        <ele>511</ele>
        <time>2010-10-05T15:29:47Z</time>
      </trkpt>
      <trkpt lat="43.87946" lon="5.62369">
        <ele>561</ele>
        <time>2010-10-05T15:30:35Z</time>
      </trkpt>
      <trkpt lat="43.87875" lon="5.62343">
        <ele>501</ele>
        <time>2010-10-05T15:31:19Z</time>
      </trkpt>
      <trkpt lat="43.87897" lon="5.62276">
        <ele>541.5</ele>
        <time>2010-10-05T15:32:04Z</time>
      </trkpt>
      <trkpt lat="43.87875" lon="5.62183">
        <ele>552.5</ele>
        <time>2010-10-05T15:32:49Z</time>
      </trkpt>
      <trkpt lat="43.87813" lon="5.62126">
        <ele>541.5</ele>
        <time>2010-10-05T15:33:39Z</time>
      </trkpt>
      <trkpt lat="43.87843" lon="5.62061">
        <ele>567.5</ele>
        <time>2010-10-05T15:34:28Z</time>
      </trkpt>
      <trkpt lat="43.87776" lon="5.61995">
        <ele>558</ele>
        <time>2010-10-05T15:35:12Z</time>
      </trkpt>
      <trkpt lat="43.87756" lon="5.61941">
        <ele>497.5</ele>
        <time>2010-10-05T15:35:59Z</time>
      </trkpt>
      <trkpt lat="43.8773" lon="5.61888">
        <ele>534</ele>
        <time>2010-10-05T15:36:44Z</time>
      </trkpt>
      <trkpt lat="43.87661" lon="5.61861">
        <ele>539.5</ele>
        <time>2010-10-05T15:37:32Z</time>
      </trkpt>
      <trkpt lat="43.87664" lon="5.61753">
        <ele>536</ele>
        <time>2010-10-05T15:38:14Z</time>
      </trkpt>
      <trkpt lat="43.87547" lon="5.61859">
        <ele>461</ele>
        <time>2010-10-05T15:38:58Z</time>
      </trkpt>
      <trkpt lat="43.87548" lon="5.61727">
        <ele>540.5</ele>
        <time>2010-10-05T15:39:42Z</time>
      </trkpt>
      <trkpt lat="43.8751" lon="5.61699">
        <ele>536.5</ele>
        <time>2010-10-05T15:40:27Z</time>
      </trkpt>
      <trkpt lat="43.87499" lon="5.61611">
        <ele>522</ele>
        <time>2010-10-05T15:41:11Z</time>
      </trkpt>
      <trkpt lat="43.87444" lon="5.61599">
        <ele>513.5</ele>
        <time>2010-10-05T15:41:54Z</time>
      </trkpt>
      <trkpt lat="43.87379" lon="5.6165">
        <ele>467.5</ele>
        <time>2010-10-05T15:42:40Z</time>
      </trkpt>
      <trkpt lat="43.87344" lon="5.61614">
        <ele>527</ele>
        <time>2010-10-05T15:43:28Z</time>
      </trkpt>
      <trkpt lat="43.87255" lon="5.61634">
        <ele>513</ele>
        <time>2010-10-05T15:44:16Z</time>
      </trkpt>
      <trkpt lat="43.87262" lon="5.61646">
        <ele>500.5</ele>
        <time>2010-10-05T15:45:05Z</time>
      </trkpt>
      <trkpt lat="43.8724" lon="5.61678">
        <ele>507.5</ele>
        <time>2010-10-05T15:45:48Z</time>
      </trkpt>
      <trkpt lat="43.87257" lon="5.61664">
        <ele>486.5</ele>
        <time>2010-10-05T15:46:35Z</time>
      </trkpt>
      <trkpt lat="43.87178" lon="5.6173">
        <ele>546</ele>
        <time>2010-10-05T15:47:17Z</time>
      </trkpt>
      <trkpt lat="43.87151" lon="5.61811">
        <ele>472</ele>
        <time>2010-10-05T15:48:00Z</time>
      </trkpt>
      <trkpt lat="43.8709" lon="5.61852">
        <ele>521.5</ele>
        <time>2010-10-05T15:48:43Z</time>
      </trkpt>
      <trkpt lat="43.87135" lon="5.61776">
        <ele>482.5</ele>
        <time>2010-10-05T15:49:28Z</time>
      </trkpt>
      <trkpt lat="43.87107" lon="5.61695">
        <ele>520.5</ele>
        <time>2010-10-05T15:50:11Z</time>
      </trkpt>
      <trkpt lat="43.87137" lon="5.6173">
        <ele>502</ele>
        <time>2010-10-05T15:50:59Z</time>
      </trkpt>
      <trkpt lat="43.87138" lon="5.6175">
        <ele>467.5</ele>
        <time>2010-10-05T15:51:42Z</time>
      </trkpt>
      <trkpt lat="43.87147" lon="5.61739">
        <ele>514</ele>
        <time>2010-10-05T15:52:35Z</time>
      </trkpt>
      <trkpt lat="43.87132" lon="5.61758">
        <ele>511.5</ele>
        <time>2010-10-05T15:53:17Z</time>
      </trkpt>
      <trkpt lat="43.87099" lon="5.61709">
        <ele>462.5</ele>
        <time>2010-10-05T16:03:11Z</time>
      </trkpt>
      <trkpt lat="43.8709" lon="5.61706">
        <ele>484</ele>
        <time>2010-10-05T16:03:53Z</time>
      </trkpt>
      <trkpt lat="43.87084" lon="5.61681">
        <ele>485.5</ele>
        <time>2010-10-05T16:04:47Z</time>
      </trkpt>
      <trkpt lat="43.87091" lon="5.61668">
        <ele>503.5</ele>
        <time>2010-10-05T16:05:41Z</time>
      </trkpt>
      <trkpt lat="43.87059" lon="5.61597">
        <ele>506</ele>
        <time>2010-10-05T16:06:29Z</time>
      </trkpt>
      <trkpt lat="43.87057" lon="5.61457">
        <ele>529.5</ele>
        <time>2010-10-05T16:07:20Z</time>
      </trkpt>
      <trkpt lat="43.87079" lon="5.61459">
        <ele>463</ele>
        <time>2010-10-05T16:08:03Z</time>
      </trkpt>
      <trkpt lat="43.87084" lon="5.61349">
        <ele>507</ele>
        <time>2010-10-05T16:08:46Z</time>
      </trkpt>
      <trkpt lat="43.87109" lon="5.6129">
        <ele>593.5</ele>
        <time>2010-10-05T16:09:31Z</time>
      </trkpt>
      <trkpt lat="43.87138" lon="5.61237">
        <ele>519.5</ele>
        <time>2010-10-05T16:10:15Z</time>
      </trkpt>
      <trkpt lat="43.87123" lon="5.61164">
        <ele>515.5</ele>
        <time>2010-10-05T16:10:58Z</time>
      </trkpt>
      <trkpt lat="43.8713" lon="5.61156">
        <ele>486.5</ele>
        <time>2010-10-05T16:11:41Z</time>
      </trkpt>
      <trkpt lat="43.87112" lon="5.60941">
        <ele>545.5</ele>
        <time>2010-10-05T16:12:24Z</time>
      </trkpt>
      <trkpt lat="43.87103" lon="5.60968">
        <ele>501.5</ele>
        <time>2010-10-05T16:13:17Z</time>
      </trkpt>
      <trkpt lat="43.87078" lon="5.60917">
        <ele>518.5</ele>
        <time>2010-10-05T16:13:57Z</time>
      </trkpt>
      <trkpt lat="43.871" lon="5.60776">
        <ele>504</ele>
        <time>2010-10-05T16:14:40Z</time>
      </trkpt>
      <trkpt lat="43.87063" lon="5.60816">
        <ele>481.5</ele>
        <time>2010-10-05T16:15:28Z</time>
      </trkpt>
      <trkpt lat="43.87042" lon="5.60754">
        <ele>500</ele>
        <time>2010-10-05T16:16:10Z</time>
      </trkpt>
      <trkpt lat="43.86987" lon="5.60751">
        <ele>476.5</ele>
        <time>2010-10-05T16:16:54Z</time>
      </trkpt>
      <trkpt lat="43.86933" lon="5.60725">
        <ele>483.5</ele>
        <time>2010-10-05T16:17:38Z</time>
      </trkpt>
      <trkpt lat="43.86898" lon="5.60727">
        <ele>453</ele>
        <time>2010-10-05T16:18:22Z</time>
      </trkpt>
      <trkpt lat="43.8682" lon="5.60714">
        <ele>492.5</ele>
        <time>2010-10-05T16:19:04Z</time>
      </trkpt>
      <trkpt lat="43.86806" lon="5.60731">
        <ele>460</ele>
        <time>2010-10-05T16:19:46Z</time>
      </trkpt>
      <trkpt lat="43.86805" lon="5.60708">
        <ele>442</ele>
        <time>2010-10-05T16:20:27Z</time>
      </trkpt>
      <trkpt lat="43.86724" lon="5.6083">
        <ele>468.5</ele>
        <time>2010-10-05T16:21:09Z</time>
      </trkpt>
      <trkpt lat="43.86691" lon="5.60767">
        <ele>468</ele>
        <time>2010-10-05T16:21:52Z</time>
      </trkpt>
      <trkpt lat="43.86663" lon="5.60748">
        <ele>474</ele>
        <time>2010-10-05T16:22:37Z</time>
      </trkpt>
      <trkpt lat="43.8659" lon="5.60745">
        <ele>470.5</ele>
        <time>2010-10-05T16:23:21Z</time>
      </trkpt>
      <trkpt lat="43.86589" lon="5.60714">
        <ele>425.5</ele>
        <time>2010-10-05T16:24:02Z</time>
      </trkpt>
      <trkpt lat="43.86517" lon="5.60704">
        <ele>456</ele>
        <time>2010-10-05T16:24:45Z</time>
      </trkpt>
      <trkpt lat="43.86484" lon="5.60654">
        <ele>450</ele>
        <time>2010-10-05T16:25:27Z</time>
      </trkpt>
      <trkpt lat="43.86428" lon="5.60665">
        <ele>533</ele>
        <time>2010-10-05T16:26:12Z</time>
      </trkpt>
      <trkpt lat="43.86421" lon="5.60574">
        <ele>452.5</ele>
        <time>2010-10-05T16:26:59Z</time>
      </trkpt>
      <trkpt lat="43.8637" lon="5.60555">
        <ele>481.5</ele>
        <time>2010-10-05T16:27:44Z</time>
      </trkpt>
      <trkpt lat="43.8632" lon="5.60513">
        <ele>457</ele>
        <time>2010-10-05T16:28:27Z</time>
      </trkpt>
      <trkpt lat="43.86263" lon="5.60471">
        <ele>423</ele>
        <time>2010-10-05T16:29:12Z</time>
      </trkpt>
      <trkpt lat="43.86264" lon="5.60488">
        <ele>411</ele>
        <time>2010-10-05T16:29:54Z</time>
      </trkpt>
      <trkpt lat="43.86224" lon="5.60467">
        <ele>361</ele>
        <time>2010-10-05T16:30:38Z</time>
      </trkpt>
      <trkpt lat="43.86196" lon="5.60438">
        <ele>361.5</ele>
        <time>2010-10-05T16:31:21Z</time>
      </trkpt>
      <trkpt lat="43.86152" lon="5.60448">
        <ele>345.5</ele>
        <time>2010-10-05T16:32:04Z</time>
      </trkpt>
      <trkpt lat="43.86046" lon="5.60407">
        <ele>382.5</ele>
        <time>2010-10-05T16:32:51Z</time>
      </trkpt>
      <trkpt lat="43.86019" lon="5.60449">
        <ele>438.5</ele>
        <time>2010-10-05T16:33:33Z</time>
      </trkpt>
      <trkpt lat="43.86053" lon="5.60354">
        <ele>211</ele>
        <time>2010-10-05T16:34:21Z</time>
      </trkpt>
      <trkpt lat="43.85914" lon="5.6037">
        <ele>398.5</ele>
        <time>2010-10-05T16:35:05Z</time>
      </trkpt>
      <trkpt lat="43.85893" lon="5.60303">
        <ele>418</ele>
        <time>2010-10-05T16:35:51Z</time>
      </trkpt>
      <trkpt lat="43.85976" lon="5.60385">
        <ele>441</ele>
        <time>2010-10-05T16:36:35Z</time>
      </trkpt>
      <trkpt lat="43.85963" lon="5.59792">
        <ele>212.5</ele>
        <time>2010-10-05T16:37:17Z</time>
      </trkpt>
      <trkpt lat="43.85884" lon="5.59951">
        <ele>308</ele>
        <time>2010-10-05T16:38:02Z</time>
      </trkpt>
      <trkpt lat="43.85908" lon="5.60001">
        <ele>482</ele>
        <time>2010-10-05T16:38:50Z</time>
      </trkpt>
      <trkpt lat="43.86027" lon="5.5982">
        <ele>158</ele>
        <time>2010-10-05T16:40:21Z</time>
      </trkpt>
      <trkpt lat="43.85915" lon="5.59888">
        <ele>449.5</ele>
        <time>2010-10-05T16:41:05Z</time>
      </trkpt>
      <trkpt lat="43.85922" lon="5.59816">
        <ele>416</ele>
        <time>2010-10-05T16:41:32Z</time>
      </trkpt>
      <trkpt lat="43.85972" lon="5.5971">
        <ele>408.5</ele>
        <time>2010-10-05T16:42:23Z</time>
      </trkpt>
      <trkpt lat="43.85963" lon="5.59693">
        <ele>338.5</ele>
        <time>2010-10-05T16:43:11Z</time>
      </trkpt>
      <trkpt lat="43.85955" lon="5.59663">
        <ele>162.5</ele>
        <time>2010-10-05T16:43:52Z</time>
      </trkpt>
      <trkpt lat="43.85923" lon="5.59456">
        <ele>402.5</ele>
        <time>2010-10-05T16:44:35Z</time>
      </trkpt>
      <trkpt lat="43.86007" lon="5.59515">
        <ele>49</ele>
        <time>2010-10-05T16:45:23Z</time>
      </trkpt>
      <trkpt lat="43.85906" lon="5.59477">
        <ele>300.5</ele>
        <time>2010-10-05T16:46:05Z</time>
      </trkpt>
      <trkpt lat="43.85822" lon="5.59414">
        <ele>335.5</ele>
        <time>2010-10-05T16:46:51Z</time>
      </trkpt>
      <trkpt lat="43.85789" lon="5.59429">
        <ele>296.5</ele>
        <time>2010-10-05T16:47:34Z</time>
      </trkpt>
      <trkpt lat="43.85812" lon="5.59297">
        <ele>215</ele>
        <time>2010-10-05T16:48:23Z</time>
      </trkpt>
    </trkseg>
  </trk>
</gpx>